Terminal Aerodrome Forecast
Issued by NWS

Current Version | Previous Version | Text Only | Print | Product List | Glossary On
Versions: 1 2 3 4 5 6 7 8 9 10 11 12
000
FTUS45 KREV 241120
TAFMMH
TAF
KMMH 241120Z 2412/2512 VRB04KT P6SM BKN180
     FM241700 19011G20KT P6SM FEW060 SCT120 BKN180 WS020/23035KT
     FM242000 24014G26KT P6SM VCSH SCT050 BKN110
     FM242300 25015G28KT 6SM -SHRASN SCT025 BKN040 OVC060
     FM250200 25011G19KT 2SM -SN BKN015 OVC025
     FM250700 29009KT 5SM -SHSN SCT015 BKN025 OVC040=

USA.gov is the U.S. government's official web portal to all federal, state and local government web resources and services.